sensor_id;sensor_type;location;lat;lon;timestamp;P1;durP1;ratioP1;P2;durP2;ratioP2
41984;SDS011;28319;48.116;10.818;2023-07-13T00:05:00;2.88;;;2.67;;
41984;SDS011;28319;48.116;10.818;2023-07-13T00:10:05;5.97;;;3.10;;
41984;SDS011;28319;48.116;10.818;2023-07-13T00:15:11;2.75;;;2.55;;
41984;SDS011;28319;48.116;10.818;2023-07-13T00:20:16;3.63;;;2.92;;
41984;SDS011;28319;48.116;10.818;2023-07-13T00:25:20;3.35;;;3.00;;
41984;SDS011;28319;48.116;10.818;2023-07-13T00:30:24;3.60;;;3.30;;
41984;SDS011;28319;48.116;10.818;2023-07-13T00:35:26;3.05;;;2.75;;
41984;SDS011;28319;48.116;10.818;2023-07-13T00:40:29;3.58;;;3.10;;
41984;SDS011;28319;48.116;10.818;2023-07-13T00:51:13;4.78;;;4.00;;
41984;SDS011;28319;48.116;10.818;2023-07-13T00:56:18;4.57;;;2.95;;
41984;SDS011;28319;48.116;10.818;2023-07-13T01:01:20;3.42;;;3.13;;
41984;SDS011;28319;48.116;10.818;2023-07-13T01:06:22;5.25;;;3.40;;
41984;SDS011;28319;48.116;10.818;2023-07-13T01:11:26;3.70;;;2.80;;
41984;SDS011;28319;48.116;10.818;2023-07-13T01:16:29;3.58;;;2.60;;
41984;SDS011;28319;48.116;10.818;2023-07-13T01:21:34;4.57;;;2.33;;
41984;SDS011;28319;48.116;10.818;2023-07-13T01:26:38;4.68;;;2.45;;
41984;SDS011;28319;48.116;10.818;2023-07-13T01:31:40;3.28;;;2.55;;
41984;SDS011;28319;48.116;10.818;2023-07-13T01:36:43;4.45;;;3.08;;
41984;SDS011;28319;48.116;10.818;2023-07-13T01:41:45;3.97;;;3.00;;
41984;SDS011;28319;48.116;10.818;2023-07-13T01:46:47;5.55;;;2.90;;
41984;SDS011;28319;48.116;10.818;2023-07-13T01:51:50;4.18;;;3.05;;
41984;SDS011;28319;48.116;10.818;2023-07-13T01:56:53;2.85;;;2.20;;
41984;SDS011;28319;48.116;10.818;2023-07-13T02:01:55;2.05;;;1.90;;
41984;SDS011;28319;48.116;10.818;2023-07-13T02:06:58;3.67;;;2.33;;
41984;SDS011;28319;48.116;10.818;2023-07-13T02:12:00;3.78;;;1.80;;
41984;SDS011;28319;48.116;10.818;2023-07-13T02:17:02;2.78;;;2.03;;
41984;SDS011;28319;48.116;10.818;2023-07-13T02:22:06;3.42;;;2.30;;
41984;SDS011;28319;48.116;10.818;2023-07-13T02:27:08;2.50;;;2.15;;
41984;SDS011;28319;48.116;10.818;2023-07-13T02:32:10;4.45;;;2.10;;
41984;SDS011;28319;48.116;10.818;2023-07-13T02:37:16;3.47;;;2.00;;
41984;SDS011;28319;48.116;10.818;2023-07-13T02:42:18;3.25;;;1.83;;
41984;SDS011;28319;48.116;10.818;2023-07-13T02:47:20;2.10;;;1.90;;
41984;SDS011;28319;48.116;10.818;2023-07-13T02:52:23;3.08;;;2.08;;
41984;SDS011;28319;48.116;10.818;2023-07-13T02:57:25;2.25;;;2.00;;
41984;SDS011;28319;48.116;10.818;2023-07-13T03:02:28;3.03;;;2.22;;
41984;SDS011;28319;48.116;10.818;2023-07-13T03:07:32;2.10;;;1.90;;
41984;SDS011;28319;48.116;10.818;2023-07-13T03:12:34;2.08;;;1.98;;
41984;SDS011;28319;48.116;10.818;2023-07-13T03:17:36;1.90;;;1.80;;
41984;SDS011;28319;48.116;10.818;2023-07-13T03:22:39;5.18;;;2.30;;
41984;SDS011;28319;48.116;10.818;2023-07-13T03:27:41;2.55;;;2.00;;
41984;SDS011;28319;48.116;10.818;2023-07-13T03:32:44;1.80;;;1.70;;
41984;SDS011;28319;48.116;10.818;2023-07-13T03:37:47;1.67;;;1.58;;
41984;SDS011;28319;48.116;10.818;2023-07-13T03:42:49;3.60;;;1.90;;
41984;SDS011;28319;48.116;10.818;2023-07-13T03:47:51;2.42;;;2.22;;
41984;SDS011;28319;48.116;10.818;2023-07-13T03:52:55;2.40;;;2.15;;
41984;SDS011;28319;48.116;10.818;2023-07-13T03:57:59;2.97;;;2.67;;
41984;SDS011;28319;48.116;10.818;2023-07-13T04:03:23;2.40;;;2.20;;
41984;SDS011;28319;48.116;10.818;2023-07-13T04:08:28;2.67;;;2.47;;
41984;SDS011;28319;48.116;10.818;2023-07-13T04:13:31;3.10;;;2.67;;
41984;SDS011;28319;48.116;10.818;2023-07-13T04:18:35;3.75;;;2.80;;
41984;SDS011;28319;48.116;10.818;2023-07-13T04:23:37;2.63;;;2.42;;
41984;SDS011;28319;48.116;10.818;2023-07-13T04:28:40;4.20;;;3.10;;
41984;SDS011;28319;48.116;10.818;2023-07-13T04:33:43;4.53;;;3.30;;
41984;SDS011;28319;48.116;10.818;2023-07-13T04:38:45;3.95;;;3.00;;
41984;SDS011;28319;48.116;10.818;2023-07-13T04:43:51;5.97;;;4.22;;
41984;SDS011;28319;48.116;10.818;2023-07-13T04:48:55;3.50;;;2.25;;
41984;SDS011;28319;48.116;10.818;2023-07-13T04:53:57;4.95;;;3.00;;
41984;SDS011;28319;48.116;10.818;2023-07-13T04:59:00;3.28;;;2.33;;
41984;SDS011;28319;48.116;10.818;2023-07-13T05:04:03;2.28;;;2.08;;
41984;SDS011;28319;48.116;10.818;2023-07-13T05:09:05;3.03;;;2.25;;
41984;SDS011;28319;48.116;10.818;2023-07-13T05:14:07;3.13;;;2.78;;
41984;SDS011;28319;48.116;10.818;2023-07-13T05:19:11;2.33;;;2.13;;
41984;SDS011;28319;48.116;10.818;2023-07-13T05:24:13;2.83;;;2.55;;
41984;SDS011;28319;48.116;10.818;2023-07-13T05:29:16;2.72;;;2.38;;
41984;SDS011;28319;48.116;10.818;2023-07-13T05:34:21;3.05;;;2.40;;
41984;SDS011;28319;48.116;10.818;2023-07-13T05:39:23;2.85;;;2.08;;
41984;SDS011;28319;48.116;10.818;2023-07-13T05:44:26;5.57;;;2.42;;
41984;SDS011;28319;48.116;10.818;2023-07-13T05:49:29;3.83;;;2.13;;
41984;SDS011;28319;48.116;10.818;2023-07-13T05:54:31;3.78;;;2.28;;
41984;SDS011;28319;48.116;10.818;2023-07-13T05:59:33;2.58;;;2.20;;
41984;SDS011;28319;48.116;10.818;2023-07-13T06:04:40;2.25;;;2.05;;
41984;SDS011;28319;48.116;10.818;2023-07-13T06:09:42;4.53;;;1.85;;
41984;SDS011;28319;48.116;10.818;2023-07-13T06:14:44;1.77;;;1.67;;
41984;SDS011;28319;48.116;10.818;2023-07-13T06:19:48;1.95;;;1.85;;
41984;SDS011;28319;48.116;10.818;2023-07-13T06:24:50;3.28;;;2.00;;
41984;SDS011;28319;48.116;10.818;2023-07-13T06:29:52;2.00;;;1.70;;
41984;SDS011;28319;48.116;10.818;2023-07-13T06:34:55;2.63;;;1.92;;
41984;SDS011;28319;48.116;10.818;2023-07-13T06:39:57;2.05;;;1.90;;
41984;SDS011;28319;48.116;10.818;2023-07-13T06:44:59;2.42;;;1.80;;
41984;SDS011;28319;48.116;10.818;2023-07-13T06:50:03;2.60;;;1.90;;
41984;SDS011;28319;48.116;10.818;2023-07-13T06:55:05;2.63;;;1.77;;
41984;SDS011;28319;48.116;10.818;2023-07-13T07:00:08;1.42;;;1.40;;
41984;SDS011;28319;48.116;10.818;2023-07-13T07:05:13;1.70;;;1.60;;
41984;SDS011;28319;48.116;10.818;2023-07-13T07:10:15;2.00;;;1.80;;
41984;SDS011;28319;48.116;10.818;2023-07-13T07:15:17;1.98;;;1.83;;
41984;SDS011;28319;48.116;10.818;2023-07-13T07:20:21;2.15;;;1.60;;
41984;SDS011;28319;48.116;10.818;2023-07-13T07:25:23;1.63;;;1.50;;
41984;SDS011;28319;48.116;10.818;2023-07-13T07:30:25;2.97;;;1.92;;
41984;SDS011;28319;48.116;10.818;2023-07-13T07:35:29;2.75;;;1.60;;
41984;SDS011;28319;48.116;10.818;2023-07-13T07:40:31;1.70;;;1.60;;
41984;SDS011;28319;48.116;10.818;2023-07-13T07:45:33;1.70;;;1.60;;
41984;SDS011;28319;48.116;10.818;2023-07-13T07:50:36;1.55;;;1.52;;
41984;SDS011;28319;48.116;10.818;2023-07-13T07:55:39;2.00;;;1.73;;
41984;SDS011;28319;48.116;10.818;2023-07-13T08:00:41;2.55;;;1.45;;
41984;SDS011;28319;48.116;10.818;2023-07-13T08:05:45;1.80;;;1.52;;
41984;SDS011;28319;48.116;10.818;2023-07-13T08:10:46;1.77;;;1.50;;
41984;SDS011;28319;48.116;10.818;2023-07-13T08:15:50;1.85;;;1.60;;
41984;SDS011;28319;48.116;10.818;2023-07-13T08:20:53;1.90;;;1.30;;
41984;SDS011;28319;48.116;10.818;2023-07-13T08:25:57;2.97;;;1.80;;
41984;SDS011;28319;48.116;10.818;2023-07-13T08:31:01;3.25;;;1.70;;
41984;SDS011;28319;48.116;10.818;2023-07-13T08:36:06;1.95;;;1.80;;
41984;SDS011;28319;48.116;10.818;2023-07-13T08:41:16;3.13;;;1.55;;
41984;SDS011;28319;48.116;10.818;2023-07-13T08:46:21;1.95;;;1.85;;
41984;SDS011;28319;48.116;10.818;2023-07-13T08:51:32;2.63;;;1.48;;
41984;SDS011;28319;48.116;10.818;2023-07-13T08:56:39;2.75;;;1.75;;
41984;SDS011;28319;48.116;10.818;2023-07-13T09:01:54;4.13;;;1.92;;
41984;SDS011;28319;48.116;10.818;2023-07-13T09:07:05;2.53;;;1.50;;
41984;SDS011;28319;48.116;10.818;2023-07-13T09:12:14;2.60;;;1.65;;
41984;SDS011;28319;48.116;10.818;2023-07-13T09:17:20;5.47;;;2.08;;
41984;SDS011;28319;48.116;10.818;2023-07-13T09:22:28;5.28;;;1.80;;
41984;SDS011;28319;48.116;10.818;2023-07-13T09:27:34;1.80;;;1.70;;
41984;SDS011;28319;48.116;10.818;2023-07-13T09:32:39;2.00;;;1.80;;
41984;SDS011;28319;48.116;10.818;2023-07-13T09:37:46;1.52;;;1.40;;
41984;SDS011;28319;48.116;10.818;2023-07-13T09:42:48;2.58;;;1.95;;
41984;SDS011;28319;48.116;10.818;2023-07-13T09:47:50;1.60;;;1.50;;
41984;SDS011;28319;48.116;10.818;2023-07-13T09:53:02;1.70;;;1.60;;
41984;SDS011;28319;48.116;10.818;2023-07-13T09:58:04;2.80;;;1.55;;
41984;SDS011;28319;48.116;10.818;2023-07-13T10:03:14;2.25;;;1.63;;
41984;SDS011;28319;48.116;10.818;2023-07-13T10:08:21;1.90;;;1.50;;
41984;SDS011;28319;48.116;10.818;2023-07-13T10:13:29;1.60;;;1.50;;
41984;SDS011;28319;48.116;10.818;2023-07-13T10:18:39;3.05;;;1.50;;
41984;SDS011;28319;48.116;10.818;2023-07-13T10:23:49;4.05;;;1.67;;
41984;SDS011;28319;48.116;10.818;2023-07-13T10:28:56;1.50;;;1.40;;
41984;SDS011;28319;48.116;10.818;2023-07-13T10:34:00;1.77;;;1.58;;
41984;SDS011;28319;48.116;10.818;2023-07-13T10:39:04;4.25;;;1.20;;
41984;SDS011;28319;48.116;10.818;2023-07-13T10:44:09;1.50;;;1.10;;
41984;SDS011;28319;48.116;10.818;2023-07-13T10:49:19;2.25;;;1.30;;
41984;SDS011;28319;48.116;10.818;2023-07-13T10:54:27;1.67;;;1.20;;
41984;SDS011;28319;48.116;10.818;2023-07-13T10:59:33;1.10;;;1.00;;
41984;SDS011;28319;48.116;10.818;2023-07-13T11:04:39;3.63;;;1.42;;
41984;SDS011;28319;48.116;10.818;2023-07-13T11:09:44;2.22;;;1.20;;
41984;SDS011;28319;48.116;10.818;2023-07-13T11:15:00;1.83;;;1.02;;
41984;SDS011;28319;48.116;10.818;2023-07-13T11:25:57;1.65;;;1.30;;
41984;SDS011;28319;48.116;10.818;2023-07-13T11:31:12;5.13;;;1.40;;
41984;SDS011;28319;48.116;10.818;2023-07-13T11:36:24;1.35;;;1.15;;
41984;SDS011;28319;48.116;10.818;2023-07-13T11:41:35;1.25;;;1.00;;
41984;SDS011;28319;48.116;10.818;2023-07-13T11:46:44;3.00;;;1.60;;
41984;SDS011;28319;48.116;10.818;2023-07-13T11:51:48;1.40;;;1.30;;
41984;SDS011;28319;48.116;10.818;2023-07-13T11:56:56;2.03;;;1.23;;
41984;SDS011;28319;48.116;10.818;2023-07-13T12:02:08;1.67;;;1.58;;
41984;SDS011;28319;48.116;10.818;2023-07-13T12:07:18;2.25;;;1.20;;
41984;SDS011;28319;48.116;10.818;2023-07-13T12:12:22;3.05;;;1.60;;
41984;SDS011;28319;48.116;10.818;2023-07-13T12:17:24;1.63;;;1.52;;
41984;SDS011;28319;48.116;10.818;2023-07-13T12:22:28;2.92;;;1.60;;
41984;SDS011;28319;48.116;10.818;2023-07-13T12:27:31;4.45;;;1.63;;
41984;SDS011;28319;48.116;10.818;2023-07-13T12:32:33;1.60;;;1.50;;
41984;SDS011;28319;48.116;10.818;2023-07-13T12:37:35;5.13;;;1.60;;
41984;SDS011;28319;48.116;10.818;2023-07-13T12:42:39;2.53;;;1.58;;
41984;SDS011;28319;48.116;10.818;2023-07-13T12:47:42;1.42;;;1.33;;
41984;SDS011;28319;48.116;10.818;2023-07-13T12:52:50;2.75;;;1.40;;
41984;SDS011;28319;48.116;10.818;2023-07-13T12:57:56;3.55;;;1.77;;
41984;SDS011;28319;48.116;10.818;2023-07-13T13:03:03;2.08;;;1.40;;
41984;SDS011;28319;48.116;10.818;2023-07-13T13:08:08;1.60;;;1.50;;
41984;SDS011;28319;48.116;10.818;2023-07-13T13:13:13;3.53;;;1.55;;
41984;SDS011;28319;48.116;10.818;2023-07-13T13:18:16;1.85;;;1.40;;
41984;SDS011;28319;48.116;10.818;2023-07-13T13:23:20;2.92;;;1.40;;
41984;SDS011;28319;48.116;10.818;2023-07-13T13:28:25;2.67;;;1.15;;
41984;SDS011;28319;48.116;10.818;2023-07-13T13:33:27;2.45;;;1.60;;
41984;SDS011;28319;48.116;10.818;2023-07-13T13:38:30;4.30;;;1.42;;
41984;SDS011;28319;48.116;10.818;2023-07-13T13:43:40;1.38;;;1.17;;
41984;SDS011;28319;48.116;10.818;2023-07-13T13:48:43;3.60;;;1.48;;
41984;SDS011;28319;48.116;10.818;2023-07-13T13:53:46;1.60;;;1.50;;
41984;SDS011;28319;48.116;10.818;2023-07-13T13:58:50;3.03;;;1.45;;
41984;SDS011;28319;48.116;10.818;2023-07-13T14:03:52;1.88;;;1.30;;
41984;SDS011;28319;48.116;10.818;2023-07-13T14:08:54;2.88;;;1.40;;
41984;SDS011;28319;48.116;10.818;2023-07-13T14:13:58;1.95;;;1.27;;
41984;SDS011;28319;48.116;10.818;2023-07-13T14:19:04;1.60;;;1.50;;
41984;SDS011;28319;48.116;10.818;2023-07-13T14:24:06;1.67;;;1.27;;
41984;SDS011;28319;48.116;10.818;2023-07-13T14:29:12;1.75;;;1.40;;
41984;SDS011;28319;48.116;10.818;2023-07-13T14:34:17;2.40;;;1.33;;
41984;SDS011;28319;48.116;10.818;2023-07-13T14:39:19;6.53;;;1.60;;
41984;SDS011;28319;48.116;10.818;2023-07-13T14:44:26;1.40;;;1.30;;
41984;SDS011;28319;48.116;10.818;2023-07-13T14:49:30;1.45;;;1.35;;
41984;SDS011;28319;48.116;10.818;2023-07-13T14:54:34;1.63;;;1.38;;
41984;SDS011;28319;48.116;10.818;2023-07-13T14:59:39;1.92;;;1.42;;
41984;SDS011;28319;48.116;10.818;2023-07-13T15:04:43;2.08;;;1.70;;
41984;SDS011;28319;48.116;10.818;2023-07-13T15:09:46;1.77;;;1.42;;
41984;SDS011;28319;48.116;10.818;2023-07-13T15:14:49;5.93;;;1.55;;
41984;SDS011;28319;48.116;10.818;2023-07-13T15:19:51;2.63;;;1.27;;
41984;SDS011;28319;48.116;10.818;2023-07-13T15:24:53;1.90;;;1.48;;
41984;SDS011;28319;48.116;10.818;2023-07-13T15:29:57;5.63;;;1.55;;
41984;SDS011;28319;48.116;10.818;2023-07-13T15:34:59;1.70;;;1.60;;
41984;SDS011;28319;48.116;10.818;2023-07-13T15:40:01;1.70;;;1.60;;
41984;SDS011;28319;48.116;10.818;2023-07-13T15:45:09;3.05;;;1.70;;
41984;SDS011;28319;48.116;10.818;2023-07-13T15:50:17;1.45;;;1.30;;
41984;SDS011;28319;48.116;10.818;2023-07-13T15:55:22;2.33;;;1.55;;
41984;SDS011;28319;48.116;10.818;2023-07-13T16:00:26;3.03;;;1.30;;
41984;SDS011;28319;48.116;10.818;2023-07-13T16:05:29;1.30;;;1.20;;
41984;SDS011;28319;48.116;10.818;2023-07-13T16:10:32;2.70;;;1.52;;
41984;SDS011;28319;48.116;10.818;2023-07-13T16:15:38;4.35;;;1.55;;
41984;SDS011;28319;48.116;10.818;2023-07-13T16:20:41;1.73;;;1.60;;
41984;SDS011;28319;48.116;10.818;2023-07-13T16:25:44;1.40;;;1.30;;
41984;SDS011;28319;48.116;10.818;2023-07-13T16:30:49;2.70;;;2.00;;
41984;SDS011;28319;48.116;10.818;2023-07-13T16:35:52;1.60;;;1.50;;
41984;SDS011;28319;48.116;10.818;2023-07-13T16:40:54;2.17;;;1.70;;
41984;SDS011;28319;48.116;10.818;2023-07-13T16:45:58;1.60;;;1.50;;
41984;SDS011;28319;48.116;10.818;2023-07-13T16:51:03;2.42;;;1.92;;
41984;SDS011;28319;48.116;10.818;2023-07-13T16:56:08;1.27;;;1.17;;
41984;SDS011;28319;48.116;10.818;2023-07-13T17:01:18;2.05;;;1.60;;
41984;SDS011;28319;48.116;10.818;2023-07-13T17:06:20;3.08;;;1.20;;
41984;SDS011;28319;48.116;10.818;2023-07-13T17:11:27;2.65;;;1.73;;
41984;SDS011;28319;48.116;10.818;2023-07-13T17:16:31;2.78;;;1.40;;
41984;SDS011;28319;48.116;10.818;2023-07-13T17:21:35;4.15;;;1.58;;
41984;SDS011;28319;48.116;10.818;2023-07-13T17:26:36;1.65;;;1.55;;
41984;SDS011;28319;48.116;10.818;2023-07-13T17:31:41;1.65;;;1.40;;
41984;SDS011;28319;48.116;10.818;2023-07-13T17:36:44;2.95;;;1.80;;
41984;SDS011;28319;48.116;10.818;2023-07-13T17:41:48;1.80;;;1.70;;
41984;SDS011;28319;48.116;10.818;2023-07-13T17:46:52;4.70;;;1.83;;
41984;SDS011;28319;48.116;10.818;2023-07-13T17:51:55;1.67;;;1.58;;
41984;SDS011;28319;48.116;10.818;2023-07-13T17:56:58;2.47;;;1.65;;
41984;SDS011;28319;48.116;10.818;2023-07-13T18:02:02;1.60;;;1.50;;
41984;SDS011;28319;48.116;10.818;2023-07-13T18:07:11;4.35;;;1.70;;
41984;SDS011;28319;48.116;10.818;2023-07-13T18:12:17;2.38;;;1.60;;
41984;SDS011;28319;48.116;10.818;2023-07-13T18:17:21;1.92;;;1.58;;
41984;SDS011;28319;48.116;10.818;2023-07-13T18:22:23;1.75;;;1.65;;
41984;SDS011;28319;48.116;10.818;2023-07-13T18:27:25;1.75;;;1.55;;
41984;SDS011;28319;48.116;10.818;2023-07-13T18:32:28;2.15;;;1.98;;
41984;SDS011;28319;48.116;10.818;2023-07-13T18:37:33;1.83;;;1.73;;
41984;SDS011;28319;48.116;10.818;2023-07-13T18:42:35;3.17;;;1.92;;
41984;SDS011;28319;48.116;10.818;2023-07-13T18:47:38;4.32;;;3.92;;
41984;SDS011;28319;48.116;10.818;2023-07-13T18:52:42;1.67;;;1.58;;
41984;SDS011;28319;48.116;10.818;2023-07-13T18:57:44;1.73;;;1.63;;
41984;SDS011;28319;48.116;10.818;2023-07-13T19:02:48;2.10;;;1.70;;
41984;SDS011;28319;48.116;10.818;2023-07-13T19:07:52;3.55;;;2.17;;
41984;SDS011;28319;48.116;10.818;2023-07-13T19:12:56;2.17;;;1.90;;
41984;SDS011;28319;48.116;10.818;2023-07-13T19:18:10;2.13;;;2.03;;
41984;SDS011;28319;48.116;10.818;2023-07-13T19:23:16;2.17;;;1.92;;
41984;SDS011;28319;48.116;10.818;2023-07-13T19:28:26;2.15;;;1.95;;
41984;SDS011;28319;48.116;10.818;2023-07-13T19:33:33;1.50;;;1.50;;
41984;SDS011;28319;48.116;10.818;2023-07-13T19:38:35;1.92;;;1.83;;
41984;SDS011;28319;48.116;10.818;2023-07-13T19:43:38;2.10;;;2.00;;
41984;SDS011;28319;48.116;10.818;2023-07-13T19:48:42;2.08;;;1.90;;
41984;SDS011;28319;48.116;10.818;2023-07-13T19:53:44;1.67;;;1.63;;
41984;SDS011;28319;48.116;10.818;2023-07-13T19:58:47;3.60;;;1.95;;
41984;SDS011;28319;48.116;10.818;2023-07-13T20:03:51;4.07;;;2.17;;
41984;SDS011;28319;48.116;10.818;2023-07-13T20:08:53;4.63;;;2.30;;
41984;SDS011;28319;48.116;10.818;2023-07-13T20:13:56;2.05;;;1.90;;
41984;SDS011;28319;48.116;10.818;2023-07-13T20:18:59;4.63;;;2.50;;
41984;SDS011;28319;48.116;10.818;2023-07-13T20:24:04;1.83;;;1.73;;
41984;SDS011;28319;48.116;10.818;2023-07-13T20:29:16;1.70;;;1.60;;
41984;SDS011;28319;48.116;10.818;2023-07-13T20:34:20;1.80;;;1.70;;
41984;SDS011;28319;48.116;10.818;2023-07-13T20:39:25;1.90;;;1.80;;
41984;SDS011;28319;48.116;10.818;2023-07-13T20:44:27;1.80;;;1.70;;
41984;SDS011;28319;48.116;10.818;2023-07-13T20:49:31;1.90;;;1.80;;
41984;SDS011;28319;48.116;10.818;2023-07-13T20:54:33;1.83;;;1.73;;
41984;SDS011;28319;48.116;10.818;2023-07-13T20:59:35;1.88;;;1.77;;
41984;SDS011;28319;48.116;10.818;2023-07-13T21:04:38;2.33;;;2.13;;
41984;SDS011;28319;48.116;10.818;2023-07-13T21:09:40;2.28;;;1.85;;
41984;SDS011;28319;48.116;10.818;2023-07-13T21:14:42;2.45;;;1.83;;
41984;SDS011;28319;48.116;10.818;2023-07-13T21:19:46;1.90;;;1.80;;
41984;SDS011;28319;48.116;10.818;2023-07-13T21:24:48;1.48;;;1.45;;
41984;SDS011;28319;48.116;10.818;2023-07-13T21:29:50;1.90;;;1.80;;
41984;SDS011;28319;48.116;10.818;2023-07-13T21:34:54;4.78;;;1.95;;
41984;SDS011;28319;48.116;10.818;2023-07-13T21:39:56;1.83;;;1.73;;
41984;SDS011;28319;48.116;10.818;2023-07-13T21:44:59;2.25;;;2.05;;
41984;SDS011;28319;48.116;10.818;2023-07-13T21:50:02;1.75;;;1.65;;
41984;SDS011;28319;48.116;10.818;2023-07-13T21:55:11;1.77;;;1.67;;
41984;SDS011;28319;48.116;10.818;2023-07-13T22:00:18;2.00;;;1.90;;
41984;SDS011;28319;48.116;10.818;2023-07-13T22:05:23;2.10;;;2.00;;
41984;SDS011;28319;48.116;10.818;2023-07-13T22:10:26;2.20;;;2.10;;
41984;SDS011;28319;48.116;10.818;2023-07-13T22:15:28;2.50;;;2.30;;
41984;SDS011;28319;48.116;10.818;2023-07-13T22:20:32;2.28;;;2.00;;
41984;SDS011;28319;48.116;10.818;2023-07-13T22:25:34;3.78;;;2.20;;
41984;SDS011;28319;48.116;10.818;2023-07-13T22:30:36;6.38;;;2.33;;
41984;SDS011;28319;48.116;10.818;2023-07-13T22:35:40;2.50;;;2.28;;
41984;SDS011;28319;48.116;10.818;2023-07-13T22:40:43;2.95;;;2.25;;
41984;SDS011;28319;48.116;10.818;2023-07-13T22:45:46;2.25;;;2.05;;
41984;SDS011;28319;48.116;10.818;2023-07-13T22:50:51;2.40;;;2.20;;
41984;SDS011;28319;48.116;10.818;2023-07-13T22:55:54;2.40;;;2.25;;
41984;SDS011;28319;48.116;10.818;2023-07-13T23:00:58;1.80;;;1.70;;
41984;SDS011;28319;48.116;10.818;2023-07-13T23:06:03;2.45;;;2.25;;
41984;SDS011;28319;48.116;10.818;2023-07-13T23:11:07;3.35;;;2.10;;
41984;SDS011;28319;48.116;10.818;2023-07-13T23:16:11;3.03;;;2.40;;
41984;SDS011;28319;48.116;10.818;2023-07-13T23:21:17;1.70;;;1.60;;
41984;SDS011;28319;48.116;10.818;2023-07-13T23:26:21;2.15;;;2.05;;
41984;SDS011;28319;48.116;10.818;2023-07-13T23:31:25;4.07;;;1.95;;
41984;SDS011;28319;48.116;10.818;2023-07-13T23:36:31;2.83;;;2.17;;
41984;SDS011;28319;48.116;10.818;2023-07-13T23:41:33;3.53;;;1.88;;
41984;SDS011;28319;48.116;10.818;2023-07-13T23:46:36;1.70;;;1.60;;
41984;SDS011;28319;48.116;10.818;2023-07-13T23:51:43;5.15;;;2.58;;
41984;SDS011;28319;48.116;10.818;2023-07-13T23:56:45;2.08;;;1.98;;
